createdAt,value
2023-02-19T00:00:35.624Z,51.45
2023-02-19T00:03:02.127Z,49.53
2023-02-19T00:05:28.700Z,48.30
2023-02-19T00:07:55.284Z,48.60
2023-02-19T00:10:21.666Z,48.28
2023-02-19T00:12:48.321Z,47.83
2023-02-19T00:15:15.050Z,47.60
2023-02-19T00:17:41.758Z,47.78
2023-02-19T00:20:08.126Z,44.08
2023-02-19T00:22:34.625Z,45.78
2023-02-19T00:25:00.947Z,45.10
2023-02-19T00:27:27.625Z,44.42
2023-02-19T00:29:54.020Z,43.25
2023-02-19T00:32:20.774Z,43.60
2023-02-19T00:34:47.201Z,41.88
2023-02-19T00:37:13.593Z,42.80
2023-02-19T00:39:40.556Z,39.97
2023-02-19T00:42:06.965Z,40.63
2023-02-19T00:44:33.311Z,39.03
2023-02-19T00:46:59.625Z,40.22
2023-02-19T00:49:26.111Z,38.47
2023-02-19T00:51:52.712Z,37.50
2023-02-19T00:54:19.115Z,38.10
2023-02-19T00:56:45.484Z,37.17
2023-02-19T00:59:12.416Z,37.00
2023-02-19T01:01:38.701Z,37.58
2023-02-19T01:04:06.676Z,35.45
2023-02-19T01:06:33.285Z,35.88
2023-02-19T01:08:59.657Z,35.17
2023-02-19T01:11:26.220Z,33.58
2023-02-19T01:13:52.572Z,33.85
2023-02-19T01:16:18.953Z,34.45
2023-02-19T01:18:45.428Z,33.65
2023-02-19T01:21:12.051Z,32.70
2023-02-19T01:23:38.514Z,32.85
2023-02-19T01:26:05.072Z,32.33
2023-02-19T01:28:31.438Z,32.50
2023-02-19T01:30:57.842Z,30.13
2023-02-19T01:33:24.284Z,31.45
2023-02-19T01:35:50.681Z,29.35
2023-02-19T01:38:17.178Z,29.67
2023-02-19T01:40:43.545Z,28.90
2023-02-19T01:43:09.940Z,28.88
2023-02-19T01:45:36.610Z,28.73
2023-02-19T01:48:03.474Z,29.42
2023-02-19T01:50:30.274Z,28.13
2023-02-19T01:52:56.694Z,28.98
2023-02-19T01:55:23.271Z,27.55
2023-02-19T01:57:49.606Z,27.42
2023-02-19T02:00:16.116Z,27.60
2023-02-19T02:02:42.822Z,25.58
2023-02-19T02:05:11.217Z,26.00
2023-02-19T02:07:41.482Z,25.73
2023-02-19T02:10:08.468Z,24.98
2023-02-19T02:12:36.691Z,25.90
2023-02-19T02:15:03.054Z,25.13
2023-02-19T02:17:30.044Z,25.60
2023-02-19T02:19:56.538Z,24.65
2023-02-19T02:22:22.937Z,25.00
2023-02-19T02:24:49.940Z,24.75
2023-02-19T02:27:16.855Z,25.48
2023-02-19T02:29:43.472Z,24.15
2023-02-19T02:32:09.887Z,23.40
2023-02-19T02:34:36.213Z,23.70
2023-02-19T02:37:02.980Z,21.88
2023-02-19T02:39:29.495Z,21.95
2023-02-19T02:41:55.958Z,22.60
2023-02-19T02:44:22.355Z,21.75
2023-02-19T02:46:48.994Z,22.02
2023-02-19T02:49:15.568Z,22.00
2023-02-19T02:51:42.008Z,21.00
2023-02-19T02:54:08.710Z,22.10
2023-02-19T02:56:35.482Z,21.58
2023-02-19T02:59:01.835Z,20.92
2023-02-19T03:01:28.561Z,20.83
2023-02-19T03:03:56.445Z,20.20
2023-02-19T03:06:22.879Z,19.88
2023-02-19T03:08:49.413Z,20.20
2023-02-19T03:11:15.766Z,19.60
2023-02-19T03:13:42.153Z,19.63
2023-02-19T03:16:08.581Z,20.00
2023-02-19T03:18:35.664Z,18.58
2023-02-19T03:21:02.655Z,19.52
2023-02-19T03:23:29.675Z,18.48
2023-02-19T03:25:56.105Z,19.15
2023-02-19T03:28:22.511Z,18.30
2023-02-19T03:30:48.930Z,18.45
2023-02-19T03:33:15.325Z,17.70
2023-02-19T03:35:42.000Z,17.77
2023-02-19T03:38:08.638Z,17.52
2023-02-19T03:40:35.396Z,17.35
2023-02-19T03:43:01.751Z,17.45
2023-02-19T03:45:28.187Z,17.45
2023-02-19T03:47:55.023Z,17.25
2023-02-19T03:50:21.509Z,16.65
2023-02-19T03:52:47.963Z,16.75
2023-02-19T03:55:14.330Z,16.48
2023-02-19T03:57:40.720Z,17.00
2023-02-19T04:00:07.027Z,16.58
2023-02-19T04:02:33.467Z,16.02
2023-02-19T04:05:00.392Z,16.85
2023-02-19T04:07:28.825Z,15.82
2023-02-19T04:09:55.793Z,15.18
2023-02-19T04:12:23.761Z,15.00
2023-02-19T04:14:50.653Z,15.30
2023-02-19T04:17:17.125Z,15.35
2023-02-19T04:19:43.474Z,14.75
2023-02-19T04:22:09.924Z,14.88
2023-02-19T04:24:36.383Z,14.63
2023-02-19T04:27:02.973Z,14.23
2023-02-19T04:29:29.353Z,14.90
2023-02-19T04:31:55.733Z,14.60
2023-02-19T04:34:22.383Z,14.30
2023-02-19T04:36:49.036Z,13.35
2023-02-19T04:39:15.581Z,13.57
2023-02-19T04:41:41.932Z,12.73
2023-02-19T04:44:08.286Z,12.85
2023-02-19T04:46:34.747Z,12.82
2023-02-19T04:49:01.305Z,13.15
2023-02-19T04:51:27.670Z,12.02
2023-02-19T04:53:54.192Z,11.50
2023-02-19T04:56:20.549Z,11.00
2023-02-19T04:58:47.009Z,12.27
2023-02-19T05:01:13.752Z,12.23
2023-02-19T05:03:40.240Z,12.00
2023-02-19T05:06:07.004Z,11.23
2023-02-19T05:08:33.361Z,10.70
2023-02-19T05:10:59.688Z,9.40
2023-02-19T05:13:26.106Z,11.30
2023-02-19T05:15:52.743Z,10.40
2023-02-19T05:18:19.696Z,10.23
2023-02-19T05:20:46.063Z,10.40
2023-02-19T05:23:12.459Z,9.98
2023-02-19T05:25:38.848Z,10.02
2023-02-19T05:28:05.465Z,9.82
2023-02-19T05:30:32.178Z,10.43
2023-02-19T05:32:58.761Z,9.30
2023-02-19T05:35:25.133Z,9.52
2023-02-19T05:37:51.598Z,8.38
2023-02-19T05:40:18.021Z,9.05
2023-02-19T05:42:44.742Z,8.57
2023-02-19T05:45:11.902Z,9.25
2023-02-19T05:47:38.605Z,8.05
2023-02-19T05:50:05.112Z,8.85
2023-02-19T05:52:31.465Z,8.45
2023-02-19T05:54:58.148Z,8.82
2023-02-19T05:57:24.587Z,8.43
2023-02-19T05:59:50.979Z,8.73
2023-02-19T06:02:17.439Z,7.63
2023-02-19T06:04:43.845Z,8.32
2023-02-19T06:07:10.159Z,8.90
2023-02-19T06:09:36.478Z,7.63
2023-02-19T06:12:02.924Z,8.18
2023-02-19T06:14:29.365Z,8.15
2023-02-19T06:16:55.669Z,8.07
2023-02-19T06:19:22.023Z,6.82
2023-02-19T06:21:48.570Z,7.53
2023-02-19T06:24:15.068Z,7.40
2023-02-19T06:26:42.116Z,7.20
2023-02-19T06:29:08.864Z,6.90
2023-02-19T06:31:35.374Z,7.22
2023-02-19T06:34:01.906Z,7.13
2023-02-19T06:36:28.351Z,7.43
2023-02-19T06:38:54.829Z,6.90
2023-02-19T06:41:21.159Z,7.00
2023-02-19T06:43:47.770Z,7.10
2023-02-19T06:46:14.249Z,7.28
2023-02-19T06:48:40.662Z,7.00
2023-02-19T06:51:07.038Z,6.35
2023-02-19T06:53:33.327Z,6.95
2023-02-19T06:55:59.698Z,6.97
2023-02-19T06:58:26.465Z,7.10
2023-02-19T07:00:52.807Z,6.47
2023-02-19T07:03:19.375Z,6.90
2023-02-19T07:05:45.686Z,6.97
2023-02-19T07:08:12.105Z,7.18
2023-02-19T07:10:38.934Z,6.88
2023-02-19T07:13:05.531Z,7.28
2023-02-19T07:15:31.885Z,7.30
2023-02-19T07:17:58.482Z,7.03
2023-02-19T07:20:24.925Z,6.65
2023-02-19T07:22:51.280Z,7.28
2023-02-19T07:25:17.602Z,7.03
2023-02-19T07:27:44.189Z,6.50
2023-02-19T07:30:11.166Z,7.07
2023-02-19T07:32:37.490Z,6.32
2023-02-19T07:35:04.239Z,6.35
2023-02-19T07:37:30.607Z,6.45
2023-02-19T07:39:57.019Z,6.90
2023-02-19T07:42:23.773Z,6.53
2023-02-19T07:44:50.193Z,6.55
2023-02-19T07:47:16.543Z,6.53
2023-02-19T07:49:43.342Z,6.82
2023-02-19T07:52:09.686Z,6.88
2023-02-19T07:54:36.220Z,7.10
2023-02-19T07:57:03.240Z,7.28
2023-02-19T07:59:29.578Z,7.53
2023-02-19T08:01:55.916Z,6.50
2023-02-19T08:04:22.316Z,7.57
2023-02-19T08:06:48.977Z,7.35
2023-02-19T08:09:15.498Z,7.15
2023-02-19T08:11:41.862Z,7.28
2023-02-19T08:14:08.186Z,7.18
2023-02-19T08:16:42.935Z,7.40
2023-02-19T08:19:09.926Z,6.82
2023-02-19T08:21:36.501Z,6.13
2023-02-19T08:24:02.998Z,7.47
2023-02-19T08:26:29.354Z,7.63
2023-02-19T08:28:55.725Z,7.38
2023-02-19T08:31:22.177Z,6.80
2023-02-19T08:33:48.723Z,7.07
2023-02-19T08:36:15.347Z,6.90
2023-02-19T08:38:41.673Z,7.07
2023-02-19T08:41:08.454Z,6.43
2023-02-19T08:43:35.091Z,6.50
2023-02-19T08:46:01.769Z,6.90
2023-02-19T08:48:28.392Z,6.78
2023-02-19T08:50:54.993Z,6.25
2023-02-19T08:53:21.345Z,6.18
2023-02-19T08:55:47.679Z,6.13
2023-02-19T08:58:14.639Z,6.47
2023-02-19T09:00:41.242Z,5.28
2023-02-19T09:03:07.912Z,6.63
2023-02-19T09:05:34.340Z,6.28
2023-02-19T09:08:00.694Z,5.43
2023-02-19T09:10:27.104Z,6.40
2023-02-19T09:12:53.443Z,5.78
2023-02-19T09:15:19.819Z,6.10
2023-02-19T09:17:46.208Z,5.43
2023-02-19T09:20:12.778Z,6.03
2023-02-19T09:22:39.110Z,5.80
2023-02-19T09:25:05.619Z,5.10
2023-02-19T09:27:32.009Z,5.50
2023-02-19T09:29:58.582Z,5.18
2023-02-19T09:32:25.369Z,6.13
2023-02-19T09:34:51.734Z,5.47
2023-02-19T09:37:18.250Z,5.43
2023-02-19T09:39:44.803Z,5.53
2023-02-19T09:42:11.101Z,5.63
2023-02-19T09:44:37.516Z,5.05
2023-02-19T09:47:03.838Z,4.93
2023-02-19T09:49:30.131Z,5.10
2023-02-19T09:51:56.739Z,4.60
2023-02-19T09:54:23.448Z,4.93
2023-02-19T09:56:49.875Z,4.82
2023-02-19T09:59:16.317Z,4.85
2023-02-19T10:01:42.656Z,4.80
2023-02-19T10:04:09.693Z,4.90
2023-02-19T10:06:36.120Z,4.22
2023-02-19T10:09:02.578Z,4.40
2023-02-19T10:11:28.903Z,4.75
2023-02-19T10:13:55.229Z,4.38
2023-02-19T10:16:21.581Z,5.00
2023-02-19T10:18:47.918Z,4.30
2023-02-19T10:21:14.225Z,4.22
2023-02-19T10:23:40.809Z,4.65
2023-02-19T10:26:07.441Z,5.10
2023-02-19T10:28:33.986Z,4.70
2023-02-19T10:31:00.346Z,4.07
2023-02-19T10:33:26.714Z,4.70
2023-02-19T10:35:53.258Z,4.38
2023-02-19T10:38:19.587Z,4.60
2023-02-19T10:40:45.933Z,4.00
2023-02-19T10:43:12.418Z,4.00
2023-02-19T10:45:38.720Z,3.88
2023-02-19T10:48:05.258Z,4.80
2023-02-19T10:50:32.227Z,3.85
2023-02-19T10:52:58.640Z,4.10
2023-02-19T10:55:25.098Z,3.95
2023-02-19T10:57:51.426Z,3.85
2023-02-19T11:00:17.784Z,4.35
2023-02-19T11:02:44.158Z,4.25
2023-02-19T11:05:11.007Z,3.85
2023-02-19T11:07:37.395Z,4.50
2023-02-19T11:10:04.178Z,3.95
2023-02-19T11:12:30.502Z,4.00
2023-02-19T11:14:56.912Z,4.05
2023-02-19T11:17:23.415Z,3.83
2023-02-19T11:19:49.889Z,3.75
2023-02-19T11:22:16.210Z,4.30
2023-02-19T11:24:42.503Z,4.15
2023-02-19T11:27:08.904Z,3.53
2023-02-19T11:29:35.309Z,3.90
2023-02-19T11:32:01.971Z,3.92
2023-02-19T11:34:28.402Z,3.88
2023-02-19T11:36:54.918Z,3.88
2023-02-19T11:39:21.248Z,3.55
2023-02-19T11:41:47.833Z,3.63
2023-02-19T11:44:14.224Z,3.88
2023-02-19T11:46:40.689Z,3.55
2023-02-19T11:49:07.451Z,3.97
2023-02-19T11:51:33.921Z,3.60
2023-02-19T11:54:00.869Z,3.33
2023-02-19T11:56:27.387Z,3.70
2023-02-19T11:58:54.259Z,3.80
2023-02-19T12:01:21.005Z,3.72
2023-02-19T12:03:47.782Z,3.22
2023-02-19T12:06:14.099Z,3.47
2023-02-19T12:08:40.461Z,3.85
2023-02-19T12:11:07.152Z,3.33
2023-02-19T12:13:33.448Z,3.75
2023-02-19T12:15:59.874Z,2.85
2023-02-19T12:18:26.549Z,3.20
2023-02-19T12:20:53.250Z,3.50
2023-02-19T12:23:19.851Z,3.30
2023-02-19T12:25:46.576Z,3.58
2023-02-19T12:28:12.925Z,3.08
2023-02-19T12:30:39.969Z,3.28
2023-02-19T12:33:06.441Z,3.45
2023-02-19T12:35:33.042Z,3.15
2023-02-19T12:37:59.503Z,3.25
2023-02-19T12:40:25.915Z,3.20
2023-02-19T12:42:52.305Z,3.10
2023-02-19T12:45:18.787Z,3.00
2023-02-19T12:47:45.154Z,3.20
2023-02-19T12:50:11.793Z,3.40
2023-02-19T12:52:38.140Z,3.53
2023-02-19T12:55:04.795Z,2.78
2023-02-19T12:57:31.124Z,3.22
2023-02-19T12:59:57.498Z,3.35
2023-02-19T13:02:24.146Z,2.80
2023-02-19T13:04:50.527Z,3.17
2023-02-19T13:07:16.933Z,2.80
2023-02-19T13:09:43.508Z,3.17
2023-02-19T13:12:09.809Z,2.90
2023-02-19T13:14:36.158Z,3.25
2023-02-19T13:17:02.516Z,3.05
2023-02-19T13:19:28.960Z,3.03
2023-02-19T13:21:55.282Z,3.03
2023-02-19T13:24:21.951Z,2.55
2023-02-19T13:26:48.317Z,2.67
2023-02-19T13:29:14.587Z,3.05
2023-02-19T13:31:41.256Z,3.17
2023-02-19T13:34:07.609Z,2.92
2023-02-19T13:36:34.132Z,3.00
2023-02-19T13:39:00.467Z,3.03
2023-02-19T13:41:26.749Z,2.70
2023-02-19T13:43:53.163Z,3.08
2023-02-19T13:46:19.710Z,68.95
2023-02-19T13:48:46.098Z,135.90
2023-02-19T13:51:12.884Z,127.00
2023-02-19T13:53:39.519Z,113.03
2023-02-19T13:56:06.194Z,105.97
2023-02-19T13:58:32.763Z,96.32
2023-02-19T14:00:59.300Z,87.75
2023-02-19T14:03:25.789Z,82.35
2023-02-19T14:05:52.502Z,75.68
2023-02-19T14:08:18.887Z,69.05
2023-02-19T14:10:45.224Z,65.38
2023-02-19T14:13:12.157Z,62.05
2023-02-19T14:15:38.671Z,100.15
2023-02-19T14:18:05.156Z,191.18
2023-02-19T14:20:31.797Z,186.10
2023-02-19T14:22:58.336Z,140.15
2023-02-19T14:25:24.664Z,123.00
2023-02-19T14:27:51.434Z,115.78
2023-02-19T14:30:17.830Z,104.32
2023-02-19T14:32:47.415Z,98.68
2023-02-19T14:35:17.298Z,93.05
2023-02-19T14:37:43.678Z,87.20
2023-02-19T14:40:10.325Z,125.80
2023-02-19T14:42:36.710Z,197.25
2023-02-19T14:45:03.185Z,244.93
2023-02-19T14:47:29.530Z,215.82
2023-02-19T14:49:55.973Z,193.43
2023-02-19T14:52:22.313Z,184.32
2023-02-19T14:54:48.663Z,169.10
2023-02-19T14:57:15.415Z,158.77
2023-02-19T14:59:41.817Z,149.32
2023-02-19T15:02:08.257Z,186.98
2023-02-19T15:04:35.832Z,230.85
2023-02-19T15:07:02.316Z,251.60
2023-02-19T15:09:29.442Z,221.00
2023-02-19T15:11:55.844Z,205.82
2023-02-19T15:14:22.210Z,192.10
2023-02-19T15:16:49.586Z,176.43
2023-02-19T15:19:16.258Z,168.05
2023-02-19T15:21:42.679Z,150.93
2023-02-19T15:24:09.140Z,142.50
2023-02-19T15:26:36.033Z,135.20
2023-02-19T15:29:02.638Z,218.73
2023-02-19T15:31:29.218Z,297.23
2023-02-19T15:33:56.211Z,256.23
2023-02-19T15:36:22.555Z,240.40
2023-02-19T15:38:49.004Z,224.80
2023-02-19T15:41:15.490Z,210.77
2023-02-19T15:43:41.845Z,201.25
2023-02-19T15:46:08.648Z,185.57
2023-02-19T15:48:34.986Z,178.32
2023-02-19T15:51:01.478Z,162.55
2023-02-19T15:53:27.870Z,158.40
2023-02-19T15:55:54.281Z,181.40
2023-02-19T15:58:21.288Z,268.25
2023-02-19T16:00:47.633Z,312.92
2023-02-19T16:03:14.026Z,262.10
2023-02-19T16:05:40.802Z,253.05
2023-02-19T16:08:07.165Z,298.27
2023-02-19T16:10:33.505Z,390.00
2023-02-19T16:12:59.966Z,417.35
2023-02-19T16:15:26.436Z,391.35
2023-02-19T16:17:52.834Z,355.05
2023-02-19T16:20:19.599Z,355.42
2023-02-19T16:22:46.050Z,392.20
2023-02-19T16:25:13.244Z,343.45
2023-02-19T16:27:39.707Z,320.48
2023-02-19T16:30:06.212Z,284.27
2023-02-19T16:32:32.670Z,291.02
2023-02-19T16:34:59.189Z,258.70
2023-02-19T16:37:25.610Z,230.18
2023-02-19T16:39:51.913Z,219.55
2023-02-19T16:42:18.698Z,211.48
2023-02-19T16:44:45.616Z,201.45
2023-02-19T16:47:12.189Z,186.23
2023-02-19T16:49:38.746Z,175.60
2023-02-19T16:52:05.370Z,166.88
2023-02-19T16:54:31.831Z,157.98
2023-02-19T16:56:58.267Z,146.45
2023-02-19T16:59:25.025Z,144.43
2023-02-19T17:01:51.475Z,136.88
2023-02-19T17:04:18.256Z,126.40
2023-02-19T17:06:44.662Z,116.90
2023-02-19T17:09:11.212Z,110.68
2023-02-19T17:11:37.883Z,105.25
2023-02-19T17:14:04.286Z,100.18
2023-02-19T17:16:30.619Z,95.47
2023-02-19T17:18:57.159Z,88.97
2023-02-19T17:21:23.570Z,88.47
2023-02-19T17:23:49.899Z,82.47
2023-02-19T17:26:16.230Z,81.38
2023-02-19T17:28:42.533Z,143.45
2023-02-19T17:31:09.027Z,227.35
2023-02-19T17:33:35.450Z,205.68
2023-02-19T17:36:01.795Z,188.10
2023-02-19T17:38:28.109Z,177.82
2023-02-19T17:40:54.489Z,164.65
2023-02-19T17:43:21.249Z,156.02
2023-02-19T17:45:47.746Z,143.98
2023-02-19T17:48:14.101Z,141.38
2023-02-19T17:50:40.621Z,229.55
2023-02-19T17:53:07.423Z,276.02
2023-02-19T17:55:33.953Z,255.32
2023-02-19T17:58:00.572Z,232.00
2023-02-19T18:00:26.866Z,224.23
2023-02-19T18:02:53.210Z,213.50
2023-02-19T18:05:19.829Z,203.90
2023-02-19T18:07:46.392Z,193.65
2023-02-19T18:10:12.746Z,177.45
2023-02-19T18:12:39.561Z,168.88
2023-02-19T18:15:05.926Z,305.42
2023-02-19T18:17:32.411Z,313.45
2023-02-19T18:19:58.856Z,282.75
2023-02-19T18:22:25.143Z,274.70
2023-02-19T18:24:51.568Z,259.08
2023-02-19T18:27:18.151Z,237.13
2023-02-19T18:29:44.878Z,226.30
2023-02-19T18:32:11.278Z,228.07
2023-02-19T18:34:38.215Z,210.88
2023-02-19T18:37:04.544Z,202.50
2023-02-19T18:39:30.884Z,193.23
2023-02-19T18:41:57.208Z,185.23
2023-02-19T18:44:24.127Z,316.17
2023-02-19T18:46:50.588Z,383.65
2023-02-19T18:49:16.986Z,365.83
2023-02-19T18:51:43.541Z,343.60
2023-02-19T18:54:10.024Z,327.85
2023-02-19T18:56:36.892Z,320.02
2023-02-19T18:59:03.369Z,413.17
2023-02-19T19:01:29.760Z,608.30
2023-02-19T19:03:56.673Z,568.33
2023-02-19T19:06:23.075Z,521.67
2023-02-19T19:08:49.662Z,497.30
2023-02-19T19:11:16.028Z,468.73
2023-02-19T19:13:42.383Z,455.27
2023-02-19T19:16:09.643Z,441.63
2023-02-19T19:18:36.515Z,422.38
2023-02-19T19:21:03.075Z,616.60
2023-02-19T19:23:29.413Z,628.80
2023-02-19T19:25:55.836Z,591.10
2023-02-19T19:28:22.314Z,553.83
2023-02-19T19:30:49.402Z,529.78
2023-02-19T19:33:17.749Z,512.72
2023-02-19T19:35:44.882Z,493.90
2023-02-19T19:38:12.331Z,477.60
2023-02-19T19:40:40.228Z,464.27
2023-02-19T19:43:07.950Z,451.63
2023-02-19T19:45:34.424Z,628.35
2023-02-19T19:48:00.805Z,600.08
2023-02-19T19:50:27.893Z,535.45
2023-02-19T19:52:55.169Z,564.80
2023-02-19T19:55:21.871Z,564.88
2023-02-19T19:57:48.271Z,547.05
2023-02-19T20:00:14.578Z,529.22
2023-02-19T20:02:41.235Z,551.15
2023-02-19T20:05:07.652Z,533.83
2023-02-19T20:07:34.007Z,523.13
2023-02-19T20:10:00.416Z,535.38
2023-02-19T20:12:27.375Z,530.90
2023-02-19T20:14:54.288Z,517.15
2023-02-19T20:17:20.917Z,505.52
2023-02-19T20:19:47.277Z,500.05
2023-02-19T20:22:13.854Z,490.20
2023-02-19T20:24:40.237Z,479.67
2023-02-19T20:27:06.991Z,468.33
2023-02-19T20:29:33.608Z,462.17
2023-02-19T20:32:00.490Z,450.30
2023-02-19T20:34:26.904Z,443.63
2023-02-19T20:36:53.521Z,428.77
2023-02-19T20:39:20.100Z,427.33
2023-02-19T20:41:46.612Z,422.45
2023-02-19T20:44:13.100Z,413.45
2023-02-19T20:46:39.939Z,410.88
2023-02-19T20:49:06.675Z,398.92
2023-02-19T20:51:33.329Z,397.30
2023-02-19T20:53:59.821Z,388.55
2023-02-19T20:56:26.246Z,377.95
2023-02-19T20:58:53.282Z,368.58
2023-02-19T21:01:19.787Z,362.15
2023-02-19T21:03:46.185Z,360.20
2023-02-19T21:06:12.882Z,351.38
2023-02-19T21:08:39.885Z,342.83
2023-02-19T21:11:06.566Z,340.23
2023-02-19T21:13:33.061Z,330.25
2023-02-19T21:15:59.456Z,331.80
2023-02-19T21:18:26.334Z,322.65
2023-02-19T21:20:53.058Z,315.83
2023-02-19T21:23:19.542Z,310.92
2023-02-19T21:25:45.847Z,309.58
2023-02-19T21:28:12.158Z,295.17
2023-02-19T21:30:38.549Z,298.25
2023-02-19T21:33:05.017Z,290.05
2023-02-19T21:35:31.641Z,285.65
2023-02-19T21:37:58.036Z,279.13
2023-02-19T21:40:24.508Z,271.38
2023-02-19T21:42:51.074Z,270.65
2023-02-19T21:45:17.417Z,266.45
2023-02-19T21:47:43.742Z,260.70
2023-02-19T21:50:10.156Z,256.92
2023-02-19T21:52:36.541Z,251.30
2023-02-19T21:55:02.808Z,244.32
2023-02-19T21:57:29.287Z,236.60
2023-02-19T21:59:55.853Z,236.25
2023-02-19T22:02:22.280Z,235.63
2023-02-19T22:04:49.093Z,229.50
2023-02-19T22:07:15.436Z,228.40
2023-02-19T22:09:42.232Z,216.95
2023-02-19T22:12:08.559Z,220.50
2023-02-19T22:14:35.043Z,208.43
2023-02-19T22:17:01.751Z,206.40
2023-02-19T22:19:28.442Z,201.88
2023-02-19T22:21:54.789Z,196.60
2023-02-19T22:24:21.154Z,191.98
2023-02-19T22:26:47.518Z,190.27
2023-02-19T22:29:13.983Z,186.45
2023-02-19T22:31:40.374Z,181.05
2023-02-19T22:34:07.294Z,178.73
2023-02-19T22:36:34.127Z,177.55
2023-02-19T22:39:00.561Z,173.45
2023-02-19T22:41:27.279Z,167.57
2023-02-19T22:43:53.695Z,162.25
2023-02-19T22:46:20.080Z,160.07
2023-02-19T22:48:46.727Z,157.23
2023-02-19T22:51:13.163Z,151.70
2023-02-19T22:53:39.592Z,151.75
2023-02-19T22:56:05.960Z,148.13
2023-02-19T22:58:32.308Z,145.85
2023-02-19T23:00:58.837Z,140.63
2023-02-19T23:03:25.795Z,139.90
2023-02-19T23:05:52.150Z,134.02
2023-02-19T23:08:18.894Z,132.55
2023-02-19T23:10:45.295Z,133.05
2023-02-19T23:13:11.804Z,129.63
2023-02-19T23:15:38.172Z,127.25
2023-02-19T23:18:04.788Z,126.15
2023-02-19T23:20:31.126Z,123.47
2023-02-19T23:22:57.584Z,122.90
2023-02-19T23:25:23.938Z,120.53
2023-02-19T23:27:50.244Z,118.07
2023-02-19T23:30:16.736Z,113.65
2023-02-19T23:32:43.369Z,113.75
2023-02-19T23:35:09.695Z,111.65
2023-02-19T23:37:36.123Z,111.18
2023-02-19T23:40:02.805Z,108.43
2023-02-19T23:42:29.208Z,105.40
2023-02-19T23:44:55.533Z,104.82
2023-02-19T23:47:21.929Z,100.00
2023-02-19T23:49:48.339Z,101.57
2023-02-19T23:52:15.266Z,97.55
2023-02-19T23:54:41.752Z,93.80
2023-02-19T23:57:08.679Z,96.13
2023-02-19T23:59:35.038Z,94.10
